»·PEaware :: N44HW KSEA-KPDX

N44HW :: KSEA-KPDX

FLIGHT INFORMATION

Flight Status: Arrived
Operator: Privately registered:
United States
More flights under this callsign
Pilot: Mark B. (13687)
Aircraft: Unknown
(EA55)
More flights by this aircraft type
Origin: KSEA Seattle-Tacoma Intl
United States
Destination: KPDX Portland Intl
United States
More flights between these airports :: More routes between these airports
Route: +SEA5 CIDUG V495 BTG
File this flight plan on PilotEdge
Remarks:
Altitude:
(Current/Filed)
12,000ft
Speed:
(Current/Filed)
280kts
Departed: 05-Feb-17 04:23 PM
Arrived: 05-Feb-17 05:02 PM
Distance/Time
Traveled:
113nm/0:39
Distance/Time
To Go:
Arrived

Flight Plot

Page will automatically refresh every two minutes.

Flight plan parsing failed; only flown route is shown


Map Options




Map Legend


Flown Route
Filed Route
Departure Airport
Arrival Airport
Navaid (VOR, NDB)
Fix

Horizontal Profiles

Position Reports

Time Latitude Longitude Heading Altitude Ground
Speed
05-Feb-17 16:09 47.435493 -122.303010 0 352ft 0kts
05-Feb-17 16:10 47.435493 -122.303010 0 352ft 0kts
05-Feb-17 16:11 47.435493 -122.303010 0 352ft 0kts
05-Feb-17 16:12 47.435493 -122.303010 0 352ft 0kts
05-Feb-17 16:13 47.435493 -122.303010 0 352ft 0kts
05-Feb-17 16:14 47.435493 -122.303010 0 352ft 0kts
05-Feb-17 16:15 47.435493 -122.303010 0 352ft 0kts
05-Feb-17 16:16 47.435493 -122.303010 0 352ft 0kts
05-Feb-17 16:17 47.436265 -122.303284 316 356ft 11kts
05-Feb-17 16:18 47.433313 -122.305548 181 335ft 24kts
05-Feb-17 16:19 47.431759 -122.306425 259 323ft 0kts
05-Feb-17 16:20 47.431759 -122.306425 259 323ft 0kts
05-Feb-17 16:21 47.431759 -122.306425 259 323ft 0kts
05-Feb-17 16:22 47.431759 -122.306425 259 323ft 0kts
05-Feb-17 16:23 47.454178 -122.308363 359 678ft 228kts
05-Feb-17 16:24 47.529469 -122.309577 0 2517ft 323kts
05-Feb-17 16:25 47.612881 -122.309484 359 4832ft 325kts
05-Feb-17 16:26 47.688654 -122.338376 312 7061ft 321kts
05-Feb-17 16:27 47.681759 -122.454075 217 9456ft 316kts
05-Feb-17 16:28 47.597467 -122.465247 176 10963ft 332kts
05-Feb-17 16:29 47.503719 -122.451572 176 10969ft 347kts
05-Feb-17 16:30 47.407576 -122.438010 176 10959ft 349kts
05-Feb-17 16:31 47.311673 -122.424575 176 10949ft 349kts
05-Feb-17 16:32 47.214910 -122.411081 178 10938ft 358kts
05-Feb-17 16:33 47.117107 -122.397456 177 10901ft 358kts
05-Feb-17 16:34 47.018908 -122.383940 179 10895ft 355kts
05-Feb-17 16:35 46.923357 -122.396552 192 10892ft 337kts
05-Feb-17 16:36 46.834856 -122.411368 194 10978ft 321kts
05-Feb-17 16:37 46.746882 -122.426249 194 11046ft 318kts
05-Feb-17 16:38 46.659410 -122.440956 194 11043ft 318kts
05-Feb-17 16:39 46.578515 -122.454271 195 11044ft 294kts
05-Feb-17 16:40 46.493659 -122.468815 194 11044ft 315kts
05-Feb-17 16:41 46.406175 -122.483167 194 11048ft 317kts
05-Feb-17 16:42 46.318837 -122.497534 194 11048ft 315kts
05-Feb-17 16:43 46.239643 -122.509998 195 11043ft 242kts
05-Feb-17 16:44 46.173168 -122.521576 196 11051ft 259kts
05-Feb-17 16:45 46.097923 -122.534224 195 11045ft 274kts
05-Feb-17 16:46 46.022505 -122.546439 194 11034ft 273kts
05-Feb-17 16:47 45.951275 -122.570567 224 10888ft 259kts
05-Feb-17 16:48 45.898666 -122.640041 225 9831ft 263kts
05-Feb-17 16:49 45.848512 -122.700696 224 8853ft 225kts
05-Feb-17 16:50 45.799053 -122.757191 224 7876ft 231kts
05-Feb-17 16:51 45.754262 -122.805418 224 6866ft 195kts
05-Feb-17 16:52 45.710538 -122.852409 224 5874ft 199kts
05-Feb-17 16:53 45.666455 -122.901673 225 4872ft 202kts
05-Feb-17 16:54 45.688628 -122.937806 15 3892ft 204kts
05-Feb-17 16:55 45.695299 -122.877405 119 3052ft 155kts
05-Feb-17 16:56 45.674758 -122.826082 118 3021ft 146kts
05-Feb-17 16:57 45.655104 -122.775894 117 2475ft 141kts
05-Feb-17 16:58 45.637446 -122.730438 117 1777ft 127kts
05-Feb-17 16:59 45.620448 -122.686627 117 1094ft 124kts
05-Feb-17 17:00 45.605889 -122.649134 117 501ft 105kts
05-Feb-17 17:01 45.592307 -122.614276 120 20ft 61kts
05-Feb-17 17:02 45.588089 -122.606695 224 18ft 0kts
05-Feb-17 17:03 45.587679 -122.607292 225 18ft 11kts
05-Feb-17 17:04 45.584295 -122.609288 144 18ft 0kts

Navigation Log

Ident Type
Flight plan parsing failed, navigation log unavailable